createdAt,value
2023-03-29T00:01:54.515Z,51.50
2023-03-29T00:04:27.820Z,51.40
2023-03-29T00:06:57.047Z,52.00
2023-03-29T00:09:26.827Z,52.90
2023-03-29T00:11:55.949Z,53.10
2023-03-29T00:14:26.669Z,52.70
2023-03-29T00:16:56.072Z,52.00
2023-03-29T00:19:25.293Z,51.30
2023-03-29T00:21:54.361Z,50.60
2023-03-29T00:24:23.973Z,50.20
2023-03-29T00:26:53.152Z,49.70
2023-03-29T00:29:22.237Z,49.50
2023-03-29T00:31:54.022Z,49.60
2023-03-29T00:34:24.576Z,49.70
2023-03-29T00:36:58.077Z,49.50
2023-03-29T00:39:27.990Z,49.60
2023-03-29T00:41:57.824Z,49.40
2023-03-29T00:45:18.876Z,48.90
2023-03-29T00:48:02.247Z,48.80
2023-03-29T00:50:43.534Z,48.80
2023-03-29T00:53:30.798Z,49.00
2023-03-29T00:56:22.792Z,48.80
2023-03-29T00:59:12.317Z,48.60
2023-03-29T01:01:55.099Z,48.10
2023-03-29T01:04:46.110Z,48.20
2023-03-29T01:07:23.846Z,48.30
2023-03-29T01:10:02.307Z,48.60
2023-03-29T01:12:37.635Z,49.10
2023-03-29T01:15:10.893Z,49.60
2023-03-29T01:17:43.506Z,49.70
2023-03-29T01:20:14.358Z,50.50
2023-03-29T01:22:51.415Z,50.90
2023-03-29T01:25:40.719Z,51.20
2023-03-29T01:28:14.575Z,51.40
2023-03-29T01:31:08.578Z,51.60
2023-03-29T01:33:44.477Z,51.90
2023-03-29T01:36:27.174Z,52.00
2023-03-29T01:38:59.420Z,52.00
2023-03-29T01:41:37.815Z,52.30
2023-03-29T01:44:21.135Z,52.40
2023-03-29T01:47:26.062Z,52.30
2023-03-29T01:50:27.858Z,52.30
2023-03-29T01:53:01.591Z,52.30
2023-03-29T01:55:38.548Z,52.30
2023-03-29T01:58:10.964Z,52.50
2023-03-29T02:00:42.228Z,52.50
2023-03-29T02:03:15.047Z,52.60
2023-03-29T02:05:46.032Z,52.80
2023-03-29T02:08:17.546Z,53.00
2023-03-29T02:10:47.040Z,53.00
2023-03-29T02:13:18.101Z,53.00
2023-03-29T02:15:47.712Z,53.00
2023-03-29T02:18:18.591Z,53.10
2023-03-29T02:20:50.787Z,53.30
2023-03-29T02:23:36.373Z,53.60
2023-03-29T02:26:06.772Z,53.90
2023-03-29T02:28:36.261Z,54.00
2023-03-29T02:31:29.473Z,54.20
2023-03-29T02:34:08.859Z,54.40
2023-03-29T02:39:14.004Z,54.60
2023-03-29T02:41:47.165Z,55.30
2023-03-29T02:44:28.841Z,55.30
2023-03-29T02:47:14.198Z,55.30
2023-03-29T02:49:44.205Z,55.30
2023-03-29T02:52:17.947Z,55.30
2023-03-29T02:54:50.394Z,55.30
2023-03-29T02:57:26.738Z,55.40
2023-03-29T02:59:58.248Z,55.30
2023-03-29T03:02:27.932Z,55.40
2023-03-29T03:04:59.263Z,55.30
2023-03-29T03:07:28.862Z,55.40
2023-03-29T03:09:58.686Z,55.10
2023-03-29T03:12:27.850Z,55.00
2023-03-29T03:14:56.904Z,55.00
2023-03-29T03:17:26.023Z,54.90
2023-03-29T03:19:55.161Z,55.10
2023-03-29T03:22:24.900Z,55.20
2023-03-29T03:24:54.089Z,55.10
2023-03-29T03:27:24.103Z,55.30
2023-03-29T03:29:53.415Z,55.20
2023-03-29T03:32:51.342Z,55.20
2023-03-29T03:35:23.795Z,55.10
2023-03-29T03:37:52.927Z,55.10
2023-03-29T03:40:22.651Z,55.20
2023-03-29T03:42:52.016Z,55.20
2023-03-29T03:45:21.220Z,55.10
2023-03-29T03:48:10.614Z,55.20
2023-03-29T03:50:52.813Z,54.90
2023-03-29T03:53:23.607Z,54.90
2023-03-29T03:56:22.015Z,54.80
2023-03-29T03:59:09.347Z,54.60
2023-03-29T04:02:17.088Z,54.70
2023-03-29T04:04:47.738Z,54.40
2023-03-29T04:07:20.442Z,54.40
2023-03-29T04:10:06.402Z,54.40
2023-03-29T04:12:39.361Z,54.40
2023-03-29T04:15:10.595Z,54.50
2023-03-29T04:17:43.446Z,54.60
2023-03-29T04:20:41.854Z,54.60
2023-03-29T04:23:12.438Z,54.80
2023-03-29T04:25:42.548Z,54.80
2023-03-29T04:28:32.555Z,54.80
2023-03-29T04:31:15.728Z,54.80
2023-03-29T04:34:07.524Z,55.00
2023-03-29T04:36:36.815Z,54.90
2023-03-29T04:39:09.526Z,55.10
2023-03-29T04:41:39.183Z,55.20
2023-03-29T04:44:18.276Z,55.10
2023-03-29T04:46:47.439Z,54.90
2023-03-29T04:52:45.944Z,54.80
2023-03-29T04:55:15.369Z,54.50
2023-03-29T04:57:59.684Z,54.20
2023-03-29T05:00:35.081Z,54.10
2023-03-29T05:03:07.620Z,54.20
2023-03-29T05:05:41.687Z,54.50
2023-03-29T05:08:10.900Z,54.60
2023-03-29T05:10:53.153Z,54.80
2023-03-29T05:13:22.385Z,54.90
2023-03-29T05:15:51.997Z,54.80
2023-03-29T05:18:22.257Z,54.80
2023-03-29T05:20:53.125Z,54.60
2023-03-29T05:23:24.095Z,54.30
2023-03-29T05:26:14.638Z,54.00
2023-03-29T05:28:51.901Z,54.00
2023-03-29T05:31:21.346Z,54.00
2023-03-29T05:33:54.554Z,54.20
2023-03-29T05:36:24.801Z,54.10
2023-03-29T05:38:55.113Z,53.80
2023-03-29T05:41:25.894Z,53.60
2023-03-29T05:44:13.664Z,53.60
2023-03-29T05:46:45.170Z,53.60
2023-03-29T05:49:18.678Z,53.80
2023-03-29T05:52:06.792Z,53.80
2023-03-29T05:54:37.068Z,53.70
2023-03-29T05:57:08.500Z,53.40
2023-03-29T05:59:38.627Z,53.40
2023-03-29T06:02:08.186Z,53.30
2023-03-29T06:04:41.884Z,53.20
2023-03-29T06:07:38.383Z,52.90
2023-03-29T06:10:18.047Z,52.60
2023-03-29T06:12:51.736Z,52.40
2023-03-29T06:15:24.414Z,52.40
2023-03-29T06:17:59.339Z,52.40
2023-03-29T06:20:28.802Z,52.00
2023-03-29T06:23:04.235Z,51.40
2023-03-29T06:25:34.231Z,51.00
2023-03-29T06:28:04.357Z,50.30
2023-03-29T06:30:33.795Z,50.20
2023-03-29T06:33:03.337Z,49.80
2023-03-29T06:35:58.857Z,49.40
2023-03-29T06:38:31.096Z,48.60
2023-03-29T06:41:18.496Z,48.10
2023-03-29T06:44:10.767Z,47.20
2023-03-29T06:46:52.207Z,46.70
2023-03-29T06:49:21.895Z,46.30
2023-03-29T06:52:23.211Z,45.60
2023-03-29T06:54:53.421Z,45.00
2023-03-29T06:57:22.817Z,44.70
2023-03-29T06:59:53.281Z,44.90
2023-03-29T07:02:29.252Z,44.90
2023-03-29T07:05:13.623Z,44.70
2023-03-29T07:08:05.524Z,44.40
2023-03-29T07:11:01.504Z,43.80
2023-03-29T07:13:33.977Z,43.00
2023-03-29T07:16:07.057Z,42.80
2023-03-29T07:18:51.279Z,42.50
2023-03-29T07:21:43.237Z,42.30
2023-03-29T07:24:13.008Z,42.20
2023-03-29T07:26:52.153Z,42.00
2023-03-29T07:29:26.533Z,41.60
2023-03-29T07:31:56.302Z,40.90
2023-03-29T07:34:43.545Z,41.00
2023-03-29T07:37:34.360Z,40.90
2023-03-29T07:40:12.818Z,40.70
2023-03-29T07:43:00.202Z,40.50
2023-03-29T07:45:33.382Z,40.00
2023-03-29T07:48:07.184Z,39.60
2023-03-29T07:51:03.226Z,39.40
2023-03-29T07:53:40.596Z,39.00
2023-03-29T07:56:23.790Z,38.60
2023-03-29T07:59:02.180Z,38.60
2023-03-29T08:01:31.762Z,38.80
2023-03-29T08:04:00.910Z,38.90
2023-03-29T08:06:56.048Z,38.50
2023-03-29T08:09:32.389Z,38.40
2023-03-29T08:12:01.644Z,37.90
2023-03-29T08:14:37.087Z,37.90
2023-03-29T08:17:12.816Z,37.80
2023-03-29T08:19:50.906Z,37.90
2023-03-29T08:22:23.627Z,38.10
2023-03-29T08:25:08.736Z,37.70
2023-03-29T08:27:43.486Z,37.20
2023-03-29T08:30:14.993Z,37.20
2023-03-29T08:32:45.270Z,36.90
2023-03-29T08:35:16.376Z,36.80
2023-03-29T08:37:54.491Z,36.50
2023-03-29T08:40:27.267Z,36.30
2023-03-29T08:43:38.960Z,36.70
2023-03-29T08:46:23.198Z,36.40
2023-03-29T08:49:02.786Z,36.10
2023-03-29T08:51:40.820Z,35.70
2023-03-29T08:54:21.909Z,35.50
2023-03-29T08:57:28.212Z,35.00
2023-03-29T09:00:07.062Z,34.90
2023-03-29T09:02:42.432Z,34.70
2023-03-29T09:05:20.600Z,34.50
2023-03-29T09:08:13.557Z,34.30
2023-03-29T09:10:48.747Z,33.70
2023-03-29T09:13:27.071Z,33.50
2023-03-29T09:16:17.550Z,33.20
2023-03-29T09:19:06.363Z,33.10
2023-03-29T09:21:46.665Z,33.20
2023-03-29T09:24:52.159Z,33.20
2023-03-29T09:27:37.215Z,32.90
2023-03-29T09:30:42.823Z,32.60
2023-03-29T09:33:28.771Z,32.50
2023-03-29T09:36:34.781Z,32.60
2023-03-29T09:39:04.374Z,32.80
2023-03-29T09:41:44.181Z,33.00
2023-03-29T09:44:30.376Z,33.20
2023-03-29T09:47:32.317Z,33.10
2023-03-29T09:50:31.100Z,33.10
2023-03-29T09:53:05.116Z,32.80
2023-03-29T09:55:40.690Z,32.60
2023-03-29T09:58:27.570Z,32.50
2023-03-29T10:00:59.562Z,32.10
2023-03-29T10:03:31.204Z,31.50
2023-03-29T10:06:12.241Z,31.20
2023-03-29T10:08:50.119Z,31.30
2023-03-29T10:11:29.805Z,31.60
2023-03-29T10:14:03.459Z,31.90
2023-03-29T10:16:41.374Z,31.90
2023-03-29T10:19:35.043Z,31.90
2023-03-29T10:22:07.697Z,32.10
2023-03-29T10:24:36.910Z,32.30
2023-03-29T10:27:11.745Z,32.30
2023-03-29T10:29:42.555Z,32.20
2023-03-29T10:32:17.324Z,32.50
2023-03-29T10:34:47.880Z,32.70
2023-03-29T10:37:19.598Z,32.80
2023-03-29T10:39:48.984Z,32.80
2023-03-29T10:42:20.397Z,32.80
2023-03-29T10:44:56.159Z,32.80
2023-03-29T10:47:26.914Z,32.70
2023-03-29T10:50:01.558Z,32.90
2023-03-29T10:52:30.748Z,32.90
2023-03-29T10:55:00.454Z,32.80
2023-03-29T10:58:09.708Z,32.90
2023-03-29T11:00:56.284Z,32.70
2023-03-29T11:03:59.766Z,32.70
2023-03-29T11:06:37.885Z,32.80
2023-03-29T11:09:20.575Z,32.90
2023-03-29T11:12:21.677Z,33.00
2023-03-29T11:15:22.258Z,33.00
2023-03-29T11:17:54.413Z,33.10
2023-03-29T11:20:23.454Z,33.20
2023-03-29T11:23:01.721Z,33.20
2023-03-29T11:25:52.034Z,33.40
2023-03-29T11:28:24.380Z,33.10
2023-03-29T11:31:01.597Z,33.20
2023-03-29T11:33:49.619Z,32.90
2023-03-29T11:36:28.018Z,32.50
2023-03-29T11:39:41.764Z,31.80
2023-03-29T11:42:19.083Z,31.30
2023-03-29T11:44:54.765Z,30.40
2023-03-29T11:47:31.693Z,30.20
2023-03-29T11:50:19.636Z,30.00
2023-03-29T11:52:56.374Z,29.60
2023-03-29T11:55:29.141Z,29.40
2023-03-29T11:58:12.881Z,29.20
2023-03-29T12:00:55.882Z,29.10
2023-03-29T12:03:47.103Z,28.70
2023-03-29T12:06:37.856Z,28.50
2023-03-29T12:09:37.695Z,28.70
2023-03-29T12:12:13.561Z,28.70
2023-03-29T12:14:53.021Z,28.70
2023-03-29T12:17:30.155Z,28.20
2023-03-29T12:20:10.634Z,27.90
2023-03-29T12:22:43.363Z,28.10
2023-03-29T12:25:18.799Z,28.20
2023-03-29T12:27:57.759Z,28.10
2023-03-29T12:30:48.139Z,28.00
2023-03-29T12:33:17.627Z,28.10
2023-03-29T12:35:59.078Z,28.30
2023-03-29T12:39:00.756Z,28.50
2023-03-29T12:42:17.756Z,28.60
2023-03-29T12:45:06.360Z,28.70
2023-03-29T12:47:43.222Z,28.70
2023-03-29T12:50:46.103Z,29.00
2023-03-29T12:53:26.604Z,28.90
2023-03-29T12:56:08.758Z,28.80
2023-03-29T12:58:38.736Z,28.90
2023-03-29T13:01:33.119Z,29.00
2023-03-29T13:04:04.104Z,28.90
2023-03-29T13:06:53.647Z,28.90
2023-03-29T13:09:30.044Z,29.00
2023-03-29T13:12:13.171Z,28.70
2023-03-29T13:14:45.313Z,28.60
2023-03-29T13:17:48.250Z,28.40
2023-03-29T13:20:53.358Z,28.10
2023-03-29T13:23:46.005Z,27.20
2023-03-29T13:26:36.692Z,26.60
2023-03-29T13:29:14.704Z,26.40
2023-03-29T13:31:56.865Z,25.90
2023-03-29T13:34:48.477Z,25.10
2023-03-29T13:37:54.809Z,24.70
2023-03-29T13:40:58.414Z,23.80
2023-03-29T13:43:33.655Z,23.20
2023-03-29T13:46:06.898Z,22.90
2023-03-29T13:48:38.811Z,23.90
2023-03-29T13:51:13.971Z,25.00
2023-03-29T13:53:51.938Z,25.50
2023-03-29T13:56:51.200Z,26.30
2023-03-29T13:59:30.201Z,26.90
2023-03-29T14:02:02.904Z,27.30
2023-03-29T14:04:44.002Z,27.60
2023-03-29T14:07:15.039Z,27.70
2023-03-29T14:09:46.317Z,27.80
2023-03-29T14:12:16.766Z,27.90
2023-03-29T14:14:58.356Z,27.80
2023-03-29T14:17:29.112Z,27.70
2023-03-29T14:20:00.675Z,27.40
2023-03-29T14:22:33.716Z,27.40
2023-03-29T14:25:11.894Z,27.60
2023-03-29T14:27:42.042Z,27.60
2023-03-29T14:30:20.213Z,27.70
2023-03-29T14:32:50.685Z,27.90
2023-03-29T14:35:20.913Z,27.90
2023-03-29T14:37:50.209Z,27.80
2023-03-29T14:40:20.909Z,27.70
2023-03-29T14:42:51.236Z,28.10
2023-03-29T14:45:23.437Z,27.40
2023-03-29T14:47:53.055Z,27.20
2023-03-29T14:50:31.011Z,27.30
2023-03-29T14:53:01.765Z,27.50
2023-03-29T14:55:32.049Z,27.70
2023-03-29T14:58:01.309Z,27.80
2023-03-29T15:00:39.253Z,28.20
2023-03-29T15:03:16.349Z,28.00
2023-03-29T15:06:04.614Z,28.10
2023-03-29T15:08:37.814Z,28.10
2023-03-29T15:11:26.600Z,28.30
2023-03-29T15:14:03.116Z,28.70
2023-03-29T15:16:33.573Z,29.00
2023-03-29T15:19:03.065Z,29.40
2023-03-29T15:21:35.069Z,29.70
2023-03-29T15:24:04.993Z,30.00
2023-03-29T15:26:37.488Z,30.20
2023-03-29T15:29:08.236Z,30.50
2023-03-29T15:31:39.705Z,30.60
2023-03-29T15:34:12.919Z,30.90
2023-03-29T15:36:45.310Z,31.10
2023-03-29T15:39:17.086Z,31.30
2023-03-29T15:41:49.283Z,31.60
2023-03-29T15:44:42.793Z,31.80
2023-03-29T15:47:13.369Z,32.10
2023-03-29T15:49:42.448Z,32.30
2023-03-29T15:52:11.767Z,32.40
2023-03-29T15:54:41.240Z,32.50
2023-03-29T15:57:15.859Z,32.70
2023-03-29T15:59:45.467Z,32.80
2023-03-29T16:02:16.387Z,32.90
2023-03-29T16:04:45.926Z,33.10
2023-03-29T16:07:17.108Z,33.10
2023-03-29T16:09:46.833Z,33.30
2023-03-29T16:12:16.434Z,33.40
2023-03-29T16:14:45.750Z,33.40
2023-03-29T16:17:15.939Z,33.60
2023-03-29T16:19:45.086Z,33.80
2023-03-29T16:22:14.179Z,33.90
2023-03-29T16:24:43.851Z,34.20
2023-03-29T16:27:13.021Z,34.40
2023-03-29T16:29:42.142Z,34.60
2023-03-29T16:32:11.446Z,34.70
2023-03-29T16:34:41.528Z,34.90
2023-03-29T16:37:11.017Z,35.00
2023-03-29T16:39:40.545Z,35.00
2023-03-29T16:42:11.372Z,35.20
2023-03-29T16:44:40.720Z,35.40
2023-03-29T16:47:12.137Z,35.50
2023-03-29T16:49:42.995Z,35.60
2023-03-29T16:52:13.432Z,35.80
2023-03-29T16:54:42.646Z,36.00
2023-03-29T16:57:11.824Z,36.30
2023-03-29T16:59:42.348Z,36.50
2023-03-29T17:02:11.404Z,36.80
2023-03-29T17:04:40.809Z,37.20
2023-03-29T17:07:09.974Z,37.50
2023-03-29T17:09:39.732Z,37.80
2023-03-29T17:12:09.036Z,38.00
2023-03-29T17:14:38.300Z,38.50
2023-03-29T17:17:08.064Z,38.80
2023-03-29T17:19:37.286Z,39.60
2023-03-29T17:22:06.544Z,39.80
2023-03-29T17:24:35.673Z,40.40
2023-03-29T17:27:04.782Z,40.90
2023-03-29T17:29:33.906Z,41.00
2023-03-29T17:32:02.984Z,41.20
2023-03-29T17:34:33.069Z,41.30
2023-03-29T17:37:03.693Z,41.30
2023-03-29T17:39:35.079Z,41.40
2023-03-29T17:42:05.682Z,41.50
2023-03-29T17:44:34.832Z,41.50
2023-03-29T17:47:04.148Z,41.50
2023-03-29T17:49:33.299Z,41.50
2023-03-29T17:52:02.654Z,41.40
2023-03-29T17:54:32.027Z,41.30
2023-03-29T17:57:01.198Z,41.30
2023-03-29T17:59:30.383Z,41.30
2023-03-29T18:02:02.597Z,41.30
2023-03-29T18:04:33.325Z,41.30
2023-03-29T18:07:02.541Z,41.20
2023-03-29T18:09:31.758Z,41.40
2023-03-29T18:12:00.951Z,41.50
2023-03-29T18:14:30.386Z,41.60
2023-03-29T18:16:59.450Z,41.70
2023-03-29T18:19:28.666Z,41.90
2023-03-29T18:21:57.889Z,42.00
2023-03-29T18:24:27.514Z,42.30
2023-03-29T18:26:56.672Z,42.50
2023-03-29T18:29:25.971Z,42.70
2023-03-29T18:31:55.143Z,42.80
2023-03-29T18:34:24.392Z,43.00
2023-03-29T18:36:53.696Z,43.10
2023-03-29T18:39:22.882Z,43.20
2023-03-29T18:41:52.074Z,44.10
2023-03-29T18:44:22.742Z,43.60
2023-03-29T18:46:52.035Z,43.90
2023-03-29T18:49:21.482Z,44.10
2023-03-29T18:51:50.546Z,44.30
2023-03-29T18:54:19.867Z,44.30
2023-03-29T18:56:49.032Z,44.40
2023-03-29T18:59:18.536Z,44.60
2023-03-29T19:01:47.764Z,44.80
2023-03-29T19:04:16.948Z,45.10
2023-03-29T19:06:46.218Z,45.40
2023-03-29T19:09:15.379Z,45.70
2023-03-29T19:11:47.861Z,45.90
2023-03-29T19:14:17.482Z,46.10
2023-03-29T19:16:46.593Z,46.20
2023-03-29T19:19:15.670Z,46.40
2023-03-29T19:21:49.560Z,46.60
2023-03-29T19:24:19.427Z,46.60
2023-03-29T19:26:50.158Z,46.60
2023-03-29T19:29:19.348Z,46.70
2023-03-29T19:31:48.451Z,46.80
2023-03-29T19:34:21.098Z,46.80
2023-03-29T19:36:51.560Z,46.90
2023-03-29T19:39:21.189Z,47.10
2023-03-29T19:41:50.303Z,47.30
2023-03-29T19:44:20.217Z,47.50
2023-03-29T19:46:50.512Z,47.60
2023-03-29T19:49:19.738Z,47.80
2023-03-29T19:51:48.882Z,47.90
2023-03-29T19:54:17.952Z,48.30
2023-03-29T19:56:47.207Z,48.60
2023-03-29T19:59:17.687Z,48.90
2023-03-29T20:01:51.258Z,49.10
2023-03-29T20:04:22.826Z,49.20
2023-03-29T20:06:52.135Z,49.50
2023-03-29T20:09:21.322Z,49.50
2023-03-29T20:11:50.553Z,49.50
2023-03-29T20:14:19.680Z,49.50
2023-03-29T20:16:52.406Z,49.40
2023-03-29T20:19:25.406Z,49.20
2023-03-29T20:21:58.895Z,49.20
2023-03-29T20:24:28.068Z,49.20
2023-03-29T20:26:57.124Z,49.10
2023-03-29T20:29:27.425Z,49.10
2023-03-29T20:31:58.234Z,49.10
2023-03-29T20:34:27.600Z,49.30
2023-03-29T20:37:00.950Z,49.40
2023-03-29T20:39:31.478Z,49.50
2023-03-29T20:42:00.619Z,49.70
2023-03-29T20:44:31.565Z,49.80
2023-03-29T20:47:06.673Z,49.90
2023-03-29T20:49:37.318Z,50.00
2023-03-29T20:52:10.685Z,49.90
2023-03-29T20:54:39.857Z,49.90
2023-03-29T20:57:11.837Z,50.00
2023-03-29T20:59:41.668Z,50.00
2023-03-29T21:02:17.388Z,50.10
2023-03-29T21:04:51.927Z,50.20
2023-03-29T21:07:21.725Z,50.40
2023-03-29T21:09:51.040Z,50.50
2023-03-29T21:12:20.323Z,50.70
2023-03-29T21:14:49.607Z,50.80
2023-03-29T21:17:19.464Z,50.90
2023-03-29T21:19:48.726Z,51.00
2023-03-29T21:22:18.297Z,51.10
2023-03-29T21:24:47.414Z,51.10
2023-03-29T21:27:16.593Z,51.10
2023-03-29T21:29:45.734Z,51.20
2023-03-29T21:32:14.811Z,51.20
2023-03-29T21:34:44.038Z,51.40
2023-03-29T21:37:15.159Z,51.40
2023-03-29T21:39:44.531Z,51.50
2023-03-29T21:42:13.694Z,51.70
2023-03-29T21:44:43.076Z,51.80
2023-03-29T21:47:12.303Z,51.90
2023-03-29T21:49:41.605Z,52.00
2023-03-29T21:52:10.866Z,52.10
2023-03-29T21:54:39.865Z,52.20
2023-03-29T21:57:09.116Z,52.40
2023-03-29T21:59:38.196Z,52.50
2023-03-29T22:02:07.377Z,53.20
2023-03-29T22:04:37.633Z,52.60
2023-03-29T22:07:10.667Z,52.60
2023-03-29T22:09:42.358Z,52.60
2023-03-29T22:12:12.113Z,52.60
2023-03-29T22:14:41.185Z,52.70
2023-03-29T22:17:10.333Z,52.80
2023-03-29T22:19:40.083Z,52.80
2023-03-29T22:22:13.770Z,52.80
2023-03-29T22:24:43.309Z,53.00
2023-03-29T22:27:12.421Z,53.10
2023-03-29T22:29:41.509Z,53.10
2023-03-29T22:32:10.644Z,53.30
2023-03-29T22:34:40.180Z,53.40
2023-03-29T22:37:09.309Z,53.40
2023-03-29T22:39:38.331Z,53.30
2023-03-29T22:42:07.440Z,53.30
2023-03-29T22:44:36.535Z,53.30
2023-03-29T22:47:05.698Z,53.30
2023-03-29T22:49:34.804Z,53.30
2023-03-29T22:52:04.499Z,53.40
2023-03-29T22:54:33.566Z,53.50
2023-03-29T22:57:02.664Z,53.60
2023-03-29T22:59:32.146Z,53.50
2023-03-29T23:02:01.384Z,53.40
2023-03-29T23:04:31.293Z,53.50
2023-03-29T23:07:00.914Z,53.50
2023-03-29T23:09:30.092Z,53.50
2023-03-29T23:11:59.538Z,53.60
2023-03-29T23:14:28.592Z,53.70
2023-03-29T23:16:58.246Z,53.90
2023-03-29T23:19:27.500Z,54.00
2023-03-29T23:21:56.559Z,54.10
2023-03-29T23:24:25.609Z,54.20
2023-03-29T23:26:55.293Z,54.40
2023-03-29T23:29:26.331Z,54.60
2023-03-29T23:31:56.859Z,55.00
2023-03-29T23:34:26.035Z,55.40
2023-03-29T23:36:55.277Z,55.80
2023-03-29T23:39:25.165Z,56.00
2023-03-29T23:41:54.232Z,56.20
2023-03-29T23:44:23.448Z,56.50
2023-03-29T23:46:52.547Z,56.60
2023-03-29T23:49:22.858Z,56.80
2023-03-29T23:51:51.980Z,57.00
2023-03-29T23:54:21.103Z,57.10
2023-03-29T23:56:50.255Z,57.20
2023-03-29T23:59:19.438Z,57.40
